sensor_id;sensor_type;location;lat;lon;timestamp;P1;durP1;ratioP1;P2;durP2;ratioP2
75012;SDS011;63567;49.956;20.130;2024-01-11T00:01:49;19.70;;;8.70;;
75012;SDS011;63567;49.956;20.130;2024-01-11T00:04:15;20.13;;;8.60;;
75012;SDS011;63567;49.956;20.130;2024-01-11T00:06:43;18.63;;;8.90;;
75012;SDS011;63567;49.956;20.130;2024-01-11T00:09:09;18.13;;;8.43;;
75012;SDS011;63567;49.956;20.130;2024-01-11T00:11:34;22.02;;;9.00;;
75012;SDS011;63567;49.956;20.130;2024-01-11T00:14:00;18.93;;;8.60;;
75012;SDS011;63567;49.956;20.130;2024-01-11T00:16:25;18.43;;;7.73;;
75012;SDS011;63567;49.956;20.130;2024-01-11T00:18:51;20.85;;;8.35;;
75012;SDS011;63567;49.956;20.130;2024-01-11T00:21:16;18.00;;;7.75;;
75012;SDS011;63567;49.956;20.130;2024-01-11T00:23:42;19.60;;;7.67;;
75012;SDS011;63567;49.956;20.130;2024-01-11T00:26:07;18.00;;;7.73;;
75012;SDS011;63567;49.956;20.130;2024-01-11T00:28:32;18.23;;;7.33;;
75012;SDS011;63567;49.956;20.130;2024-01-11T00:30:57;17.50;;;8.13;;
75012;SDS011;63567;49.956;20.130;2024-01-11T00:33:23;19.23;;;7.20;;
75012;SDS011;63567;49.956;20.130;2024-01-11T00:35:48;20.10;;;8.07;;
75012;SDS011;63567;49.956;20.130;2024-01-11T00:38:13;18.73;;;7.23;;
75012;SDS011;63567;49.956;20.130;2024-01-11T00:40:38;15.77;;;6.77;;
75012;SDS011;63567;49.956;20.130;2024-01-11T00:43:04;18.00;;;6.87;;
75012;SDS011;63567;49.956;20.130;2024-01-11T00:45:29;14.02;;;6.57;;
75012;SDS011;63567;49.956;20.130;2024-01-11T00:47:54;16.83;;;7.17;;
75012;SDS011;63567;49.956;20.130;2024-01-11T00:50:20;16.07;;;7.40;;
75012;SDS011;63567;49.956;20.130;2024-01-11T00:52:45;16.83;;;7.37;;
75012;SDS011;63567;49.956;20.130;2024-01-11T00:55:10;18.63;;;7.87;;
75012;SDS011;63567;49.956;20.130;2024-01-11T00:57:35;17.90;;;7.43;;
75012;SDS011;63567;49.956;20.130;2024-01-11T01:00:01;19.87;;;7.50;;
75012;SDS011;63567;49.956;20.130;2024-01-11T01:02:26;19.30;;;7.77;;
75012;SDS011;63567;49.956;20.130;2024-01-11T01:04:51;15.63;;;7.00;;
75012;SDS011;63567;49.956;20.130;2024-01-11T01:07:16;17.53;;;7.40;;
75012;SDS011;63567;49.956;20.130;2024-01-11T01:09:42;20.00;;;7.53;;
75012;SDS011;63567;49.956;20.130;2024-01-11T01:12:07;17.60;;;7.53;;
75012;SDS011;63567;49.956;20.130;2024-01-11T01:14:32;15.33;;;6.97;;
75012;SDS011;63567;49.956;20.130;2024-01-11T01:16:57;16.67;;;7.97;;
75012;SDS011;63567;49.956;20.130;2024-01-11T01:19:23;17.87;;;7.00;;
75012;SDS011;63567;49.956;20.130;2024-01-11T01:21:48;19.53;;;8.17;;
75012;SDS011;63567;49.956;20.130;2024-01-11T01:24:13;18.73;;;7.10;;
75012;SDS011;63567;49.956;20.130;2024-01-11T01:26:38;15.53;;;6.73;;
75012;SDS011;63567;49.956;20.130;2024-01-11T01:29:04;14.98;;;7.13;;
75012;SDS011;63567;49.956;20.130;2024-01-11T01:31:30;15.30;;;6.72;;
75012;SDS011;63567;49.956;20.130;2024-01-11T01:34:02;16.92;;;7.28;;
75012;SDS011;63567;49.956;20.130;2024-01-11T01:36:27;17.83;;;7.30;;
75012;SDS011;63567;49.956;20.130;2024-01-11T01:38:52;15.20;;;6.87;;
75012;SDS011;63567;49.956;20.130;2024-01-11T01:41:17;18.67;;;6.90;;
75012;SDS011;63567;49.956;20.130;2024-01-11T01:43:43;15.43;;;6.70;;
75012;SDS011;63567;49.956;20.130;2024-01-11T01:46:08;14.70;;;6.90;;
75012;SDS011;63567;49.956;20.130;2024-01-11T01:48:33;15.40;;;6.60;;
75012;SDS011;63567;49.956;20.130;2024-01-11T01:50:59;15.07;;;6.10;;
75012;SDS011;63567;49.956;20.130;2024-01-11T01:53:24;13.77;;;6.03;;
75012;SDS011;63567;49.956;20.130;2024-01-11T01:55:53;15.18;;;6.43;;
75012;SDS011;63567;49.956;20.130;2024-01-11T01:58:19;17.55;;;6.50;;
75012;SDS011;63567;49.956;20.130;2024-01-11T02:00:45;15.50;;;6.38;;
75012;SDS011;63567;49.956;20.130;2024-01-11T02:03:14;16.85;;;6.15;;
75012;SDS011;63567;49.956;20.130;2024-01-11T02:05:40;17.90;;;6.70;;
75012;SDS011;63567;49.956;20.130;2024-01-11T02:08:06;15.57;;;7.20;;
75012;SDS011;63567;49.956;20.130;2024-01-11T02:10:35;14.50;;;6.03;;
75012;SDS011;63567;49.956;20.130;2024-01-11T02:13:00;16.95;;;7.18;;
75012;SDS011;63567;49.956;20.130;2024-01-11T02:15:26;17.08;;;7.07;;
75012;SDS011;63567;49.956;20.130;2024-01-11T02:17:51;18.50;;;6.80;;
75012;SDS011;63567;49.956;20.130;2024-01-11T02:20:16;14.00;;;6.40;;
75012;SDS011;63567;49.956;20.130;2024-01-11T02:22:42;15.70;;;6.20;;
75012;SDS011;63567;49.956;20.130;2024-01-11T02:25:15;15.55;;;7.03;;
75012;SDS011;63567;49.956;20.130;2024-01-11T02:30:12;19.80;;;7.45;;
75012;SDS011;63567;49.956;20.130;2024-01-11T02:32:38;17.20;;;6.20;;
75012;SDS011;63567;49.956;20.130;2024-01-11T02:35:03;17.85;;;7.28;;
75012;SDS011;63567;49.956;20.130;2024-01-11T02:37:29;16.38;;;7.00;;
75012;SDS011;63567;49.956;20.130;2024-01-11T02:39:55;19.75;;;7.50;;
75012;SDS011;63567;49.956;20.130;2024-01-11T02:42:20;16.20;;;7.93;;
75012;SDS011;63567;49.956;20.130;2024-01-11T02:44:46;15.90;;;7.00;;
75012;SDS011;63567;49.956;20.130;2024-01-11T02:47:12;18.17;;;7.88;;
75012;SDS011;63567;49.956;20.130;2024-01-11T02:49:37;21.40;;;7.97;;
75012;SDS011;63567;49.956;20.130;2024-01-11T02:52:02;18.27;;;7.87;;
75012;SDS011;63567;49.956;20.130;2024-01-11T02:54:28;21.40;;;8.77;;
75012;SDS011;63567;49.956;20.130;2024-01-11T02:56:54;20.73;;;8.10;;
75012;SDS011;63567;49.956;20.130;2024-01-11T02:59:19;17.00;;;8.43;;
75012;SDS011;63567;49.956;20.130;2024-01-11T03:01:44;19.13;;;7.83;;
75012;SDS011;63567;49.956;20.130;2024-01-11T03:04:09;19.63;;;8.00;;
75012;SDS011;63567;49.956;20.130;2024-01-11T03:06:35;20.43;;;7.70;;
75012;SDS011;63567;49.956;20.130;2024-01-11T03:09:00;15.67;;;7.30;;
75012;SDS011;63567;49.956;20.130;2024-01-11T03:11:25;21.00;;;8.07;;
75012;SDS011;63567;49.956;20.130;2024-01-11T03:13:51;19.63;;;8.07;;
75012;SDS011;63567;49.956;20.130;2024-01-11T03:16:16;20.70;;;8.60;;
75012;SDS011;63567;49.956;20.130;2024-01-11T03:18:41;21.23;;;9.60;;
75012;SDS011;63567;49.956;20.130;2024-01-11T03:21:07;18.43;;;8.93;;
75012;SDS011;63567;49.956;20.130;2024-01-11T03:23:32;23.87;;;9.07;;
75012;SDS011;63567;49.956;20.130;2024-01-11T03:25:57;21.10;;;9.60;;
75012;SDS011;63567;49.956;20.130;2024-01-11T03:28:22;22.57;;;8.43;;
75012;SDS011;63567;49.956;20.130;2024-01-11T03:30:48;20.10;;;9.27;;
75012;SDS011;63567;49.956;20.130;2024-01-11T03:33:13;22.77;;;9.60;;
75012;SDS011;63567;49.956;20.130;2024-01-11T03:35:38;21.40;;;8.67;;
75012;SDS011;63567;49.956;20.130;2024-01-11T03:38:05;24.30;;;9.48;;
75012;SDS011;63567;49.956;20.130;2024-01-11T03:40:30;19.80;;;8.77;;
75012;SDS011;63567;49.956;20.130;2024-01-11T03:42:56;18.53;;;8.60;;
75012;SDS011;63567;49.956;20.130;2024-01-11T03:45:21;21.77;;;8.63;;
75012;SDS011;63567;49.956;20.130;2024-01-11T03:47:46;22.10;;;9.10;;
75012;SDS011;63567;49.956;20.130;2024-01-11T03:50:11;20.87;;;9.07;;
75012;SDS011;63567;49.956;20.130;2024-01-11T03:52:37;19.08;;;9.73;;
75012;SDS011;63567;49.956;20.130;2024-01-11T03:55:02;22.27;;;8.90;;
75012;SDS011;63567;49.956;20.130;2024-01-11T03:57:28;21.52;;;9.52;;
75012;SDS011;63567;49.956;20.130;2024-01-11T03:59:53;23.10;;;9.10;;
75012;SDS011;63567;49.956;20.130;2024-01-11T04:02:19;22.20;;;9.20;;
75012;SDS011;63567;49.956;20.130;2024-01-11T04:04:44;22.88;;;9.98;;
75012;SDS011;63567;49.956;20.130;2024-01-11T04:07:09;26.70;;;10.80;;
75012;SDS011;63567;49.956;20.130;2024-01-11T04:09:36;24.93;;;10.47;;
75012;SDS011;63567;49.956;20.130;2024-01-11T04:12:03;22.08;;;9.85;;
75012;SDS011;63567;49.956;20.130;2024-01-11T04:14:28;24.73;;;9.88;;
75012;SDS011;63567;49.956;20.130;2024-01-11T04:16:54;22.33;;;9.37;;
75012;SDS011;63567;49.956;20.130;2024-01-11T04:19:19;28.20;;;10.93;;
75012;SDS011;63567;49.956;20.130;2024-01-11T04:21:44;23.08;;;10.02;;
75012;SDS011;63567;49.956;20.130;2024-01-11T04:24:10;28.33;;;10.70;;
75012;SDS011;63567;49.956;20.130;2024-01-11T04:26:35;26.33;;;10.63;;
75012;SDS011;63567;49.956;20.130;2024-01-11T04:29:00;23.13;;;9.60;;
75012;SDS011;63567;49.956;20.130;2024-01-11T04:31:26;20.97;;;9.83;;
75012;SDS011;63567;49.956;20.130;2024-01-11T04:33:52;23.45;;;9.77;;
75012;SDS011;63567;49.956;20.130;2024-01-11T04:36:17;22.27;;;9.80;;
75012;SDS011;63567;49.956;20.130;2024-01-11T04:38:42;20.07;;;8.87;;
75012;SDS011;63567;49.956;20.130;2024-01-11T04:41:09;19.08;;;9.00;;
75012;SDS011;63567;49.956;20.130;2024-01-11T04:43:36;17.92;;;8.05;;
75012;SDS011;63567;49.956;20.130;2024-01-11T04:46:03;22.42;;;9.13;;
75012;SDS011;63567;49.956;20.130;2024-01-11T04:48:29;21.52;;;8.35;;
75012;SDS011;63567;49.956;20.130;2024-01-11T04:50:54;22.43;;;8.70;;
75012;SDS011;63567;49.956;20.130;2024-01-11T04:53:19;19.53;;;8.60;;
75012;SDS011;63567;49.956;20.130;2024-01-11T04:55:44;23.27;;;9.70;;
75012;SDS011;63567;49.956;20.130;2024-01-11T04:58:09;23.53;;;8.40;;
75012;SDS011;63567;49.956;20.130;2024-01-11T05:00:35;21.17;;;9.07;;
75012;SDS011;63567;49.956;20.130;2024-01-11T05:03:00;22.40;;;9.03;;
75012;SDS011;63567;49.956;20.130;2024-01-11T05:05:25;23.47;;;9.17;;
75012;SDS011;63567;49.956;20.130;2024-01-11T05:07:50;21.30;;;8.50;;
75012;SDS011;63567;49.956;20.130;2024-01-11T05:10:16;21.97;;;8.63;;
75012;SDS011;63567;49.956;20.130;2024-01-11T05:12:41;21.00;;;9.13;;
75012;SDS011;63567;49.956;20.130;2024-01-11T05:15:06;20.20;;;8.63;;
75012;SDS011;63567;49.956;20.130;2024-01-11T05:17:34;18.10;;;8.32;;
75012;SDS011;63567;49.956;20.130;2024-01-11T05:20:00;21.53;;;8.00;;
75012;SDS011;63567;49.956;20.130;2024-01-11T05:22:25;20.37;;;8.60;;
75012;SDS011;63567;49.956;20.130;2024-01-11T05:24:50;20.30;;;8.63;;
75012;SDS011;63567;49.956;20.130;2024-01-11T05:27:15;18.77;;;8.77;;
75012;SDS011;63567;49.956;20.130;2024-01-11T05:29:41;19.57;;;7.90;;
75012;SDS011;63567;49.956;20.130;2024-01-11T05:32:06;17.97;;;7.20;;
75012;SDS011;63567;49.956;20.130;2024-01-11T05:34:31;13.93;;;6.80;;
75012;SDS011;63567;49.956;20.130;2024-01-11T05:36:57;14.45;;;6.20;;
75012;SDS011;63567;49.956;20.130;2024-01-11T05:39:22;15.07;;;5.85;;
75012;SDS011;63567;49.956;20.130;2024-01-11T05:41:47;12.53;;;5.63;;
75012;SDS011;63567;49.956;20.130;2024-01-11T05:44:13;13.02;;;5.57;;
75012;SDS011;63567;49.956;20.130;2024-01-11T05:46:38;12.03;;;5.70;;
75012;SDS011;63567;49.956;20.130;2024-01-11T05:49:03;13.37;;;5.90;;
75012;SDS011;63567;49.956;20.130;2024-01-11T05:51:28;11.97;;;5.20;;
75012;SDS011;63567;49.956;20.130;2024-01-11T05:53:54;10.90;;;5.17;;
75012;SDS011;63567;49.956;20.130;2024-01-11T05:56:20;10.90;;;4.85;;
75012;SDS011;63567;49.956;20.130;2024-01-11T05:58:45;14.32;;;6.15;;
75012;SDS011;63567;49.956;20.130;2024-01-11T06:01:11;9.40;;;5.30;;
75012;SDS011;63567;49.956;20.130;2024-01-11T06:03:36;14.38;;;5.88;;
75012;SDS011;63567;49.956;20.130;2024-01-11T06:06:02;11.77;;;5.75;;
75012;SDS011;63567;49.956;20.130;2024-01-11T06:08:28;12.82;;;5.63;;
75012;SDS011;63567;49.956;20.130;2024-01-11T06:10:55;13.73;;;5.55;;
75012;SDS011;63567;49.956;20.130;2024-01-11T06:13:20;13.93;;;5.77;;
75012;SDS011;63567;49.956;20.130;2024-01-11T06:15:45;13.90;;;5.57;;
75012;SDS011;63567;49.956;20.130;2024-01-11T06:18:11;12.43;;;5.37;;
75012;SDS011;63567;49.956;20.130;2024-01-11T06:20:36;12.80;;;4.97;;
75012;SDS011;63567;49.956;20.130;2024-01-11T06:23:01;10.90;;;5.50;;
75012;SDS011;63567;49.956;20.130;2024-01-11T06:25:26;10.30;;;5.07;;
75012;SDS011;63567;49.956;20.130;2024-01-11T06:27:52;12.98;;;5.78;;
75012;SDS011;63567;49.956;20.130;2024-01-11T06:30:17;11.07;;;5.17;;
75012;SDS011;63567;49.956;20.130;2024-01-11T06:32:43;14.93;;;5.67;;
75012;SDS011;63567;49.956;20.130;2024-01-11T06:35:08;11.90;;;5.63;;
75012;SDS011;63567;49.956;20.130;2024-01-11T06:37:33;14.35;;;6.40;;
75012;SDS011;63567;49.956;20.130;2024-01-11T06:39:59;13.40;;;5.57;;
75012;SDS011;63567;49.956;20.130;2024-01-11T06:42:24;14.53;;;6.00;;
75012;SDS011;63567;49.956;20.130;2024-01-11T06:44:49;13.52;;;6.82;;
75012;SDS011;63567;49.956;20.130;2024-01-11T06:47:14;14.10;;;6.90;;
75012;SDS011;63567;49.956;20.130;2024-01-11T06:49:40;17.02;;;7.93;;
75012;SDS011;63567;49.956;20.130;2024-01-11T06:52:06;19.67;;;7.43;;
75012;SDS011;63567;49.956;20.130;2024-01-11T06:54:31;19.10;;;8.07;;
75012;SDS011;63567;49.956;20.130;2024-01-11T06:56:57;17.25;;;7.85;;
75012;SDS011;63567;49.956;20.130;2024-01-11T06:59:22;18.15;;;8.70;;
75012;SDS011;63567;49.956;20.130;2024-01-11T07:01:48;17.40;;;7.67;;
75012;SDS011;63567;49.956;20.130;2024-01-11T07:04:14;19.85;;;7.57;;
75012;SDS011;63567;49.956;20.130;2024-01-11T07:06:39;18.45;;;8.13;;
75012;SDS011;63567;49.956;20.130;2024-01-11T07:09:04;20.67;;;8.30;;
75012;SDS011;63567;49.956;20.130;2024-01-11T07:11:30;15.45;;;7.25;;
75012;SDS011;63567;49.956;20.130;2024-01-11T07:13:57;20.30;;;8.05;;
75012;SDS011;63567;49.956;20.130;2024-01-11T07:16:22;17.60;;;8.10;;
75012;SDS011;63567;49.956;20.130;2024-01-11T07:18:47;16.87;;;7.93;;
75012;SDS011;63567;49.956;20.130;2024-01-11T07:21:12;18.10;;;7.63;;
75012;SDS011;63567;49.956;20.130;2024-01-11T07:23:38;20.63;;;8.52;;
75012;SDS011;63567;49.956;20.130;2024-01-11T07:26:03;15.40;;;7.33;;
75012;SDS011;63567;49.956;20.130;2024-01-11T07:28:29;18.23;;;7.47;;
75012;SDS011;63567;49.956;20.130;2024-01-11T07:30:54;15.27;;;6.50;;
75012;SDS011;63567;49.956;20.130;2024-01-11T07:33:20;16.30;;;6.20;;
75012;SDS011;63567;49.956;20.130;2024-01-11T07:35:45;12.77;;;5.80;;
75012;SDS011;63567;49.956;20.130;2024-01-11T07:38:11;13.32;;;6.28;;
75012;SDS011;63567;49.956;20.130;2024-01-11T07:40:37;10.57;;;5.03;;
75012;SDS011;63567;49.956;20.130;2024-01-11T07:43:02;11.90;;;5.50;;
75012;SDS011;63567;49.956;20.130;2024-01-11T07:45:28;10.45;;;5.63;;
75012;SDS011;63567;49.956;20.130;2024-01-11T07:47:55;12.88;;;5.55;;
75012;SDS011;63567;49.956;20.130;2024-01-11T07:50:20;14.57;;;5.80;;
75012;SDS011;63567;49.956;20.130;2024-01-11T07:52:45;13.57;;;5.93;;
75012;SDS011;63567;49.956;20.130;2024-01-11T07:55:10;12.27;;;6.10;;
75012;SDS011;63567;49.956;20.130;2024-01-11T07:57:37;15.48;;;6.32;;
75012;SDS011;63567;49.956;20.130;2024-01-11T08:00:03;15.20;;;6.53;;
75012;SDS011;63567;49.956;20.130;2024-01-11T08:02:31;12.88;;;6.55;;
75012;SDS011;63567;49.956;20.130;2024-01-11T08:04:56;17.05;;;6.90;;
75012;SDS011;63567;49.956;20.130;2024-01-11T08:07:22;15.47;;;6.60;;
75012;SDS011;63567;49.956;20.130;2024-01-11T08:09:47;15.30;;;6.97;;
75012;SDS011;63567;49.956;20.130;2024-01-11T08:12:12;14.88;;;6.97;;
75012;SDS011;63567;49.956;20.130;2024-01-11T08:14:39;17.40;;;7.13;;
75012;SDS011;63567;49.956;20.130;2024-01-11T08:17:04;14.68;;;6.53;;
75012;SDS011;63567;49.956;20.130;2024-01-11T08:19:30;14.83;;;6.67;;
75012;SDS011;63567;49.956;20.130;2024-01-11T08:21:56;13.73;;;6.60;;
75012;SDS011;63567;49.956;20.130;2024-01-11T08:24:21;16.02;;;6.20;;
75012;SDS011;63567;49.956;20.130;2024-01-11T08:26:47;14.07;;;6.68;;
75012;SDS011;63567;49.956;20.130;2024-01-11T08:29:13;15.23;;;5.83;;
75012;SDS011;63567;49.956;20.130;2024-01-11T08:31:38;11.57;;;5.45;;
75012;SDS011;63567;49.956;20.130;2024-01-11T08:34:03;13.07;;;5.37;;
75012;SDS011;63567;49.956;20.130;2024-01-11T08:36:32;11.38;;;4.90;;
75012;SDS011;63567;49.956;20.130;2024-01-11T08:39:01;10.80;;;4.30;;
75012;SDS011;63567;49.956;20.130;2024-01-11T08:41:30;10.55;;;4.93;;
75012;SDS011;63567;49.956;20.130;2024-01-11T08:43:55;9.73;;;4.43;;
75012;SDS011;63567;49.956;20.130;2024-01-11T08:46:26;9.27;;;4.80;;
75012;SDS011;63567;49.956;20.130;2024-01-11T08:48:52;10.45;;;4.20;;
75012;SDS011;63567;49.956;20.130;2024-01-11T08:51:18;10.25;;;4.45;;
75012;SDS011;63567;49.956;20.130;2024-01-11T08:53:44;9.65;;;4.03;;
75012;SDS011;63567;49.956;20.130;2024-01-11T08:56:09;9.97;;;4.73;;
75012;SDS011;63567;49.956;20.130;2024-01-11T08:58:34;12.57;;;4.10;;
75012;SDS011;63567;49.956;20.130;2024-01-11T09:01:01;10.75;;;4.10;;
75012;SDS011;63567;49.956;20.130;2024-01-11T09:03:26;11.13;;;4.67;;
75012;SDS011;63567;49.956;20.130;2024-01-11T09:05:51;9.53;;;4.47;;
75012;SDS011;63567;49.956;20.130;2024-01-11T09:08:16;12.20;;;4.57;;
75012;SDS011;63567;49.956;20.130;2024-01-11T09:10:42;9.70;;;4.03;;
75012;SDS011;63567;49.956;20.130;2024-01-11T09:13:07;10.70;;;3.93;;
75012;SDS011;63567;49.956;20.130;2024-01-11T09:15:32;10.90;;;4.33;;
75012;SDS011;63567;49.956;20.130;2024-01-11T09:17:58;11.27;;;4.85;;
75012;SDS011;63567;49.956;20.130;2024-01-11T09:20:27;9.95;;;4.55;;
75012;SDS011;63567;49.956;20.130;2024-01-11T09:22:53;9.37;;;4.00;;
75012;SDS011;63567;49.956;20.130;2024-01-11T09:25:18;11.50;;;4.60;;
75012;SDS011;63567;49.956;20.130;2024-01-11T09:27:43;10.50;;;4.70;;
75012;SDS011;63567;49.956;20.130;2024-01-11T09:30:09;10.07;;;4.37;;
75012;SDS011;63567;49.956;20.130;2024-01-11T09:32:34;12.80;;;5.05;;
75012;SDS011;63567;49.956;20.130;2024-01-11T09:35:00;12.00;;;5.30;;
75012;SDS011;63567;49.956;20.130;2024-01-11T09:37:25;11.33;;;4.43;;
75012;SDS011;63567;49.956;20.130;2024-01-11T09:39:51;9.73;;;4.50;;
75012;SDS011;63567;49.956;20.130;2024-01-11T09:42:16;10.63;;;4.43;;
75012;SDS011;63567;49.956;20.130;2024-01-11T09:44:43;10.88;;;4.45;;
75012;SDS011;63567;49.956;20.130;2024-01-11T09:47:09;12.65;;;4.72;;
75012;SDS011;63567;49.956;20.130;2024-01-11T09:49:36;10.48;;;4.70;;
75012;SDS011;63567;49.956;20.130;2024-01-11T09:52:04;10.18;;;4.55;;
75012;SDS011;63567;49.956;20.130;2024-01-11T09:54:30;9.75;;;4.40;;
75012;SDS011;63567;49.956;20.130;2024-01-11T09:56:55;11.27;;;4.53;;
75012;SDS011;63567;49.956;20.130;2024-01-11T09:59:28;9.35;;;4.88;;
75012;SDS011;63567;49.956;20.130;2024-01-11T10:01:53;9.33;;;4.77;;
75012;SDS011;63567;49.956;20.130;2024-01-11T10:04:18;9.13;;;4.23;;
75012;SDS011;63567;49.956;20.130;2024-01-11T10:06:44;11.00;;;4.10;;
75012;SDS011;63567;49.956;20.130;2024-01-11T10:09:10;9.13;;;4.07;;
75012;SDS011;63567;49.956;20.130;2024-01-11T10:11:35;9.43;;;4.53;;
75012;SDS011;63567;49.956;20.130;2024-01-11T10:14:01;8.38;;;4.07;;
75012;SDS011;63567;49.956;20.130;2024-01-11T10:16:27;10.38;;;4.00;;
75012;SDS011;63567;49.956;20.130;2024-01-11T10:18:54;8.45;;;3.80;;
75012;SDS011;63567;49.956;20.130;2024-01-11T10:21:20;9.50;;;3.70;;
75012;SDS011;63567;49.956;20.130;2024-01-11T10:23:45;9.63;;;4.00;;
75012;SDS011;63567;49.956;20.130;2024-01-11T10:26:10;8.30;;;3.90;;
75012;SDS011;63567;49.956;20.130;2024-01-11T10:28:35;8.90;;;4.30;;
75012;SDS011;63567;49.956;20.130;2024-01-11T10:31:04;10.43;;;4.82;;
75012;SDS011;63567;49.956;20.130;2024-01-11T10:33:33;9.82;;;4.43;;
75012;SDS011;63567;49.956;20.130;2024-01-11T10:35:58;11.80;;;5.43;;
75012;SDS011;63567;49.956;20.130;2024-01-11T10:38:25;11.18;;;5.20;;
75012;SDS011;63567;49.956;20.130;2024-01-11T10:40:51;10.70;;;5.30;;
75012;SDS011;63567;49.956;20.130;2024-01-11T10:43:21;12.25;;;4.90;;
75012;SDS011;63567;49.956;20.130;2024-01-11T10:45:48;10.85;;;4.75;;
75012;SDS011;63567;49.956;20.130;2024-01-11T10:48:18;10.55;;;4.88;;
75012;SDS011;63567;49.956;20.130;2024-01-11T10:50:46;10.68;;;4.50;;
75012;SDS011;63567;49.956;20.130;2024-01-11T10:55:55;12.68;;;5.40;;
75012;SDS011;63567;49.956;20.130;2024-01-11T10:58:24;10.52;;;4.90;;
75012;SDS011;63567;49.956;20.130;2024-01-11T11:00:51;12.25;;;5.18;;
75012;SDS011;63567;49.956;20.130;2024-01-11T11:03:19;10.82;;;4.70;;
75012;SDS011;63567;49.956;20.130;2024-01-11T11:05:45;9.95;;;4.90;;
75012;SDS011;63567;49.956;20.130;2024-01-11T11:08:12;8.48;;;3.83;;
75012;SDS011;63567;49.956;20.130;2024-01-11T11:10:38;8.88;;;4.10;;
75012;SDS011;63567;49.956;20.130;2024-01-11T11:13:05;9.30;;;3.63;;
75012;SDS011;63567;49.956;20.130;2024-01-11T11:15:31;9.43;;;4.03;;
75012;SDS011;63567;49.956;20.130;2024-01-11T11:17:57;8.77;;;3.80;;
75012;SDS011;63567;49.956;20.130;2024-01-11T11:20:22;7.38;;;3.60;;
75012;SDS011;63567;49.956;20.130;2024-01-11T11:22:48;7.30;;;3.03;;
75012;SDS011;63567;49.956;20.130;2024-01-11T11:25:29;7.35;;;3.65;;
75012;SDS011;63567;49.956;20.130;2024-01-11T11:27:54;8.13;;;3.35;;
75012;SDS011;63567;49.956;20.130;2024-01-11T11:30:20;7.65;;;3.30;;
75012;SDS011;63567;49.956;20.130;2024-01-11T11:32:45;8.07;;;3.17;;
75012;SDS011;63567;49.956;20.130;2024-01-11T11:35:11;8.45;;;2.95;;
75012;SDS011;63567;49.956;20.130;2024-01-11T11:37:37;6.85;;;2.70;;
75012;SDS011;63567;49.956;20.130;2024-01-11T11:40:03;6.30;;;2.72;;
75012;SDS011;63567;49.956;20.130;2024-01-11T11:42:36;6.97;;;3.10;;
75012;SDS011;63567;49.956;20.130;2024-01-11T11:45:01;7.65;;;3.20;;
75012;SDS011;63567;49.956;20.130;2024-01-11T11:47:36;7.60;;;2.80;;
75012;SDS011;63567;49.956;20.130;2024-01-11T11:50:07;8.82;;;3.63;;
75012;SDS011;63567;49.956;20.130;2024-01-11T11:52:34;6.47;;;2.97;;
75012;SDS011;63567;49.956;20.130;2024-01-11T11:55:01;7.05;;;2.70;;
75012;SDS011;63567;49.956;20.130;2024-01-11T11:57:27;6.10;;;2.63;;
75012;SDS011;63567;49.956;20.130;2024-01-11T11:59:54;7.10;;;2.97;;
75012;SDS011;63567;49.956;20.130;2024-01-11T12:02:22;8.10;;;3.22;;
75012;SDS011;63567;49.956;20.130;2024-01-11T12:04:49;8.85;;;3.47;;
75012;SDS011;63567;49.956;20.130;2024-01-11T12:07:15;9.67;;;3.13;;
75012;SDS011;63567;49.956;20.130;2024-01-11T12:09:41;8.25;;;3.25;;
75012;SDS011;63567;49.956;20.130;2024-01-11T12:12:06;10.15;;;3.92;;
75012;SDS011;63567;49.956;20.130;2024-01-11T12:14:32;6.82;;;3.40;;
75012;SDS011;63567;49.956;20.130;2024-01-11T12:16:59;8.32;;;3.30;;
75012;SDS011;63567;49.956;20.130;2024-01-11T12:19:24;7.63;;;3.60;;
75012;SDS011;63567;49.956;20.130;2024-01-11T12:21:50;8.60;;;3.50;;
75012;SDS011;63567;49.956;20.130;2024-01-11T12:24:15;7.90;;;3.63;;
75012;SDS011;63567;49.956;20.130;2024-01-11T12:26:42;10.48;;;4.32;;
75012;SDS011;63567;49.956;20.130;2024-01-11T12:29:08;10.27;;;4.28;;
75012;SDS011;63567;49.956;20.130;2024-01-11T12:31:34;9.98;;;3.78;;
75012;SDS011;63567;49.956;20.130;2024-01-11T12:34:00;12.70;;;4.63;;
75012;SDS011;63567;49.956;20.130;2024-01-11T12:36:26;10.57;;;4.72;;
75012;SDS011;63567;49.956;20.130;2024-01-11T12:38:51;10.35;;;5.00;;
75012;SDS011;63567;49.956;20.130;2024-01-11T12:41:17;10.45;;;4.63;;
75012;SDS011;63567;49.956;20.130;2024-01-11T12:43:43;14.20;;;5.15;;
75012;SDS011;63567;49.956;20.130;2024-01-11T12:46:09;12.40;;;5.45;;
75012;SDS011;63567;49.956;20.130;2024-01-11T12:48:34;10.88;;;5.03;;
75012;SDS011;63567;49.956;20.130;2024-01-11T12:50:59;10.27;;;4.87;;
75012;SDS011;63567;49.956;20.130;2024-01-11T12:53:25;13.80;;;5.43;;
75012;SDS011;63567;49.956;20.130;2024-01-11T12:56:06;11.52;;;5.03;;
75012;SDS011;63567;49.956;20.130;2024-01-11T12:58:41;11.95;;;5.13;;
75012;SDS011;63567;49.956;20.130;2024-01-11T13:01:07;11.40;;;5.22;;
75012;SDS011;63567;49.956;20.130;2024-01-11T13:03:33;11.52;;;4.88;;
75012;SDS011;63567;49.956;20.130;2024-01-11T13:05:59;13.00;;;5.68;;
75012;SDS011;63567;49.956;20.130;2024-01-11T13:08:25;12.67;;;5.23;;
75012;SDS011;63567;49.956;20.130;2024-01-11T13:10:52;10.43;;;4.95;;
75012;SDS011;63567;49.956;20.130;2024-01-11T13:13:17;10.75;;;5.55;;
75012;SDS011;63567;49.956;20.130;2024-01-11T13:15:42;12.10;;;5.10;;
75012;SDS011;63567;49.956;20.130;2024-01-11T13:18:08;10.63;;;4.07;;
75012;SDS011;63567;49.956;20.130;2024-01-11T13:20:33;11.65;;;5.00;;
75012;SDS011;63567;49.956;20.130;2024-01-11T13:23:11;11.10;;;5.00;;
75012;SDS011;63567;49.956;20.130;2024-01-11T13:25:41;11.85;;;5.25;;
75012;SDS011;63567;49.956;20.130;2024-01-11T13:28:07;11.52;;;5.05;;
75012;SDS011;63567;49.956;20.130;2024-01-11T13:30:33;12.05;;;5.47;;
75012;SDS011;63567;49.956;20.130;2024-01-11T13:32:58;13.43;;;5.57;;
75012;SDS011;63567;49.956;20.130;2024-01-11T13:35:24;13.25;;;5.82;;
75012;SDS011;63567;49.956;20.130;2024-01-11T13:37:49;14.40;;;5.53;;
75012;SDS011;63567;49.956;20.130;2024-01-11T13:40:15;12.65;;;6.32;;
75012;SDS011;63567;49.956;20.130;2024-01-11T13:42:40;13.63;;;6.40;;
75012;SDS011;63567;49.956;20.130;2024-01-11T13:45:05;12.57;;;5.30;;
75012;SDS011;63567;49.956;20.130;2024-01-11T13:47:34;14.63;;;5.93;;
75012;SDS011;63567;49.956;20.130;2024-01-11T13:49:59;13.98;;;5.60;;
75012;SDS011;63567;49.956;20.130;2024-01-11T13:52:25;16.03;;;6.83;;
75012;SDS011;63567;49.956;20.130;2024-01-11T13:54:50;14.97;;;6.40;;
75012;SDS011;63567;49.956;20.130;2024-01-11T13:57:15;15.10;;;6.90;;
75012;SDS011;63567;49.956;20.130;2024-01-11T13:59:41;13.82;;;6.55;;
75012;SDS011;63567;49.956;20.130;2024-01-11T14:02:06;16.17;;;6.97;;
75012;SDS011;63567;49.956;20.130;2024-01-11T14:04:32;14.90;;;6.67;;
75012;SDS011;63567;49.956;20.130;2024-01-11T14:06:57;18.58;;;6.97;;
75012;SDS011;63567;49.956;20.130;2024-01-11T14:09:23;16.60;;;7.57;;
75012;SDS011;63567;49.956;20.130;2024-01-11T14:11:48;17.57;;;7.10;;
75012;SDS011;63567;49.956;20.130;2024-01-11T14:14:14;18.42;;;7.95;;
75012;SDS011;63567;49.956;20.130;2024-01-11T14:16:39;20.60;;;7.93;;
75012;SDS011;63567;49.956;20.130;2024-01-11T14:19:04;20.63;;;8.57;;
75012;SDS011;63567;49.956;20.130;2024-01-11T14:21:30;18.63;;;8.43;;